Time;durP1;ratioP1;P1;durP2;ratioP2;P2;SDS_P1;SDS_P2;PMS_P1;PMS_P2;Temp;Humidity;BMP_temperature;BMP_pressure;BME280_temperature;BME280_humidity;BME280_pressure;Samples;Min_cycle;Max_cycle;Signal;HPM_P1;HPM_P2
2024/01/29 00:07:43;;;;;;;17.13;7.97;;;;;;;5.42;100.00;101867.38;31728977;27;20097;-77
2024/01/29 00:22:45;;;;;;;10.97;5.20;;;;;;;5.41;100.00;101863.13;31746337;27;20535;-77
2024/01/29 00:37:47;;;;;;;10.50;5.07;;;;;;;5.42;100.00;101875.47;31711614;27;20091;-77
2024/01/29 00:52:49;;;;;;;8.83;3.80;;;;;;;5.07;100.00;101884.00;31717488;27;20143;-76
2024/01/29 01:07:51;;;;;;;7.47;3.73;;;;;;;5.87;100.00;101893.28;31702698;28;20063;-76
2024/01/29 01:22:53;;;;;;;8.83;3.90;;;;;;;5.78;100.00;101906.91;31712213;27;20050;-77
2024/01/29 01:37:55;;;;;;;4.77;2.87;;;;;;;5.59;100.00;101910.22;31736948;27;20048;-77
2024/01/29 01:52:57;;;;;;;7.50;4.27;;;;;;;5.65;100.00;101930.41;31716799;27;20043;-77
2024/01/29 02:08:00;;;;;;;8.53;3.53;;;;;;;5.75;100.00;101938.00;31722538;27;20090;-77
2024/01/29 02:23:03;;;;;;;7.57;3.97;;;;;;;5.84;100.00;101956.75;31702251;27;20052;-78
2024/01/29 02:38:05;;;;;;;9.17;5.13;;;;;;;5.56;100.00;101978.22;31729560;27;20146;-76
2024/01/29 02:53:07;;;;;;;7.93;4.27;;;;;;;5.01;100.00;101997.63;31727475;27;20523;-77
2024/01/29 03:08:09;;;;;;;6.80;4.27;;;;;;;5.49;100.00;102002.25;31752065;27;20408;-77
2024/01/29 03:23:11;;;;;;;9.17;4.57;;;;;;;4.85;100.00;102005.56;31704479;27;20760;-76
2024/01/29 03:38:13;;;;;;;10.00;5.20;;;;;;;4.57;100.00;102031.47;31742816;27;20473;-77
2024/01/29 03:53:15;;;;;;;8.80;4.50;;;;;;;5.18;100.00;102045.13;31716653;27;20101;-78
2024/01/29 04:08:17;;;;;;;8.27;4.33;;;;;;;4.32;100.00;102065.53;31693504;27;20143;-77
2024/01/29 04:23:19;;;;;;;8.53;4.27;;;;;;;4.69;100.00;102099.56;31724749;27;20134;-77
2024/01/29 04:38:21;;;;;;;6.50;4.20;;;;;;;4.34;100.00;102125.94;31700799;27;20051;-78
2024/01/29 04:53:23;;;;;;;8.13;4.53;;;;;;;3.93;100.00;102147.34;31733024;27;20088;-76
2024/01/29 05:08:25;;;;;;;6.93;4.00;;;;;;;3.56;100.00;102168.50;31709399;27;20500;-77
2024/01/29 05:23:27;;;;;;;9.33;4.93;;;;;;;3.55;100.00;102184.94;31699037;28;20061;-76
2024/01/29 05:38:32;;;;;;;12.50;4.87;;;;;;;3.52;100.00;102202.50;31739049;28;20080;-76
2024/01/29 05:53:34;;;;;;;10.23;5.77;;;;;;;4.56;100.00;102228.94;31735198;28;20078;-79
2024/01/29 06:08:36;;;;;;;11.27;5.00;;;;;;;6.04;100.00;102243.53;31715757;27;20056;-77
2024/01/29 06:23:38;;;;;;;7.60;4.13;;;;;;;7.36;100.00;102262.56;31733029;27;20079;-77
2024/01/29 06:38:40;;;;;;;7.93;4.63;;;;;;;6.95;100.00;102282.63;31747441;27;20057;-77
2024/01/29 06:53:43;;;;;;;7.50;3.50;;;;;;;8.87;99.58;102272.16;31749292;27;20146;-76
2024/01/29 07:08:45;;;;;;;7.73;3.90;;;;;;;10.38;79.16;102282.78;31719168;27;20066;-77
2024/01/29 07:23:47;;;;;;;8.77;4.33;;;;;;;9.95;71.80;102302.16;31745676;27;20084;-78
2024/01/29 07:38:49;;;;;;;12.53;4.57;;;;;;;10.96;60.88;102306.91;31699139;27;20476;-78
2024/01/29 07:53:51;;;;;;;9.73;3.93;;;;;;;11.51;54.28;102316.19;31755053;27;20055;-77
2024/01/29 08:08:53;;;;;;;9.40;4.50;;;;;;;12.10;50.67;102327.31;31722179;27;20086;-76
2024/01/29 08:23:55;;;;;;;6.93;4.50;;;;;;;12.67;45.98;102314.16;31723340;27;20050;-79
2024/01/29 08:38:58;;;;;;;10.37;4.00;;;;;;;13.28;46.53;102335.97;31706368;27;20048;-77
2024/01/29 08:54:00;;;;;;;5.17;2.67;;;;;;;13.02;44.19;102347.09;31715111;28;20044;-76
2024/01/29 09:09:02;;;;;;;4.37;2.93;;;;;;;13.22;42.94;102350.38;31739944;28;20072;-77
2024/01/29 09:24:05;;;;;;;6.13;2.80;;;;;;;13.79;43.60;102343.16;31722304;28;20046;-77
2024/01/29 09:39:07;;;;;;;3.80;2.40;;;;;;;13.25;40.42;102366.72;31710078;28;20046;-76
2024/01/29 09:54:11;;;;;;;7.03;2.87;;;;;;;12.00;44.08;102377.78;31733515;27;20070;-77
2024/01/29 10:09:14;;;;;;;4.80;2.87;;;;;;;9.77;49.20;102392.16;31756539;27;20095;-81
2024/01/29 10:24:17;;;;;;;7.30;3.13;;;;;;;8.93;55.39;102410.84;31774894;27;20044;-86
2024/01/29 10:39:22;;;;;;;7.20;3.70;;;;;;;8.58;56.18;102401.81;31788880;27;20390;-83
2024/01/29 10:54:24;;;;;;;5.47;2.93;;;;;;;9.86;54.30;102391.94;31744519;27;20071;-74
2024/01/29 11:09:28;;;;;;;7.07;2.90;;;;;;;9.72;52.51;102397.84;31729612;27;20413;-77
2024/01/29 11:24:32;;;;;;;3.77;2.37;;;;;;;10.78;49.11;102403.69;31732528;27;20055;-76
2024/01/29 11:39:43;;;;;;;7.60;2.93;;;;;;;10.36;50.40;102404.53;31718465;27;20038;-87
2024/01/29 11:54:45;;;;;;;7.73;2.83;;;;;;;9.53;56.35;102408.69;31739450;27;20055;-84
2024/01/29 12:09:47;;;;;;;4.47;2.43;;;;;;;8.34;62.44;102427.91;31743518;27;20047;-79
2024/01/29 12:24:50;;;;;;;5.57;2.63;;;;;;;8.28;63.76;102434.66;31740096;28;20039;-80
2024/01/29 12:39:53;;;;;;;8.27;2.63;;;;;;;8.42;65.62;102445.91;31775476;27;20378;-86
2024/01/29 12:54:58;;;;;;;5.23;2.40;;;;;;;8.19;63.10;102437.53;31729367;28;20051;-82
2024/01/29 13:10:03;;;;;;;5.40;2.40;;;;;;;8.15;64.81;102446.69;31736805;28;20028;-87
2024/01/29 13:25:14;;;;;;;7.37;3.13;;;;;;;7.91;74.30;102457.59;31798654;28;20135;-91
2024/01/29 13:40:31;;;;;;;8.90;3.87;;;;;;;7.78;79.97;102471.16;31761320;27;20141;-80
2024/01/29 13:55:34;;;;;;;9.40;4.53;;;;;;;7.42;88.68;102469.28;31783335;27;20068;-87
2024/01/29 14:10:36;;;;;;;6.33;3.97;;;;;;;7.08;94.95;102488.66;31790314;27;20420;-80
2024/01/29 14:25:38;;;;;;;13.73;5.80;;;;;;;6.73;100.00;102501.75;31786911;27;20051;-90
2024/01/29 14:40:44;;;;;;;15.33;6.70;;;;;;;6.46;100.00;102503.13;31805376;27;20040;-89
2024/01/29 14:55:49;;;;;;;13.87;5.87;;;;;;;7.33;100.00;102508.34;31765584;27;20044;-84
2024/01/29 15:10:53;;;;;;;13.27;6.53;;;;;;;7.16;100.00;102537.16;31770372;27;20374;-84
2024/01/29 15:25:56;;;;;;;16.93;6.93;;;;;;;6.61;100.00;102534.13;31741669;27;20040;-79
2024/01/29 15:40:58;;;;;;;16.13;5.63;;;;;;;5.77;100.00;102547.56;31724135;27;20587;-75
2024/01/29 15:56:00;;;;;;;14.23;5.83;;;;;;;6.67;100.00;102551.66;31714363;27;20051;-76
2024/01/29 16:11:03;;;;;;;12.50;6.63;;;;;;;6.28;100.00;102583.41;31732765;27;20075;-80
2024/01/29 16:26:05;;;;;;;16.23;7.20;;;;;;;5.52;100.00;102596.97;31744351;27;20510;-82
2024/01/29 16:41:07;;;;;;;16.30;6.50;;;;;;;5.35;100.00;102614.00;31738882;27;20054;-79
2024/01/29 16:56:09;;;;;;;12.13;5.70;;;;;;;5.43;100.00;102620.47;31742119;27;20048;-78
2024/01/29 17:11:13;;;;;;;16.93;6.53;;;;;;;5.99;100.00;102634.69;31709848;27;20051;-78
2024/01/29 17:26:16;;;;;;;11.10;6.33;;;;;;;5.06;100.00;102641.63;31713514;28;20071;-77
2024/01/29 17:41:20;;;;;;;16.00;6.57;;;;;;;4.96;100.00;102660.78;31710005;28;20154;-77
2024/01/29 17:56:22;;;;;;;15.87;8.10;;;;;;;5.03;100.00;102652.22;31730197;28;20071;-77
2024/01/29 18:11:24;;;;;;;13.07;7.43;;;;;;;4.89;100.00;102660.47;31734757;27;20058;-77
2024/01/29 18:26:26;;;;;;;17.77;7.43;;;;;;;4.78;100.00;102661.91;31734426;27;20090;-78
2024/01/29 18:41:28;;;;;;;23.80;9.17;;;;;;;4.69;100.00;102677.25;31783576;27;20150;-79
2024/01/29 18:56:32;;;;;;;21.43;9.70;;;;;;;5.35;100.00;102696.72;31749802;27;20058;-81
2024/01/29 19:11:34;;;;;;;23.13;9.10;;;;;;;4.57;100.00;102693.22;31789483;27;20522;-79
2024/01/29 19:26:36;;;;;;;58.90;23.53;;;;;;;4.65;100.00;102684.38;31757025;27;20075;-79
2024/01/29 19:41:39;;;;;;;28.27;10.20;;;;;;;5.07;100.00;102680.91;31734386;27;20492;-80
2024/01/29 19:56:41;;;;;;;34.57;12.93;;;;;;;4.50;100.00;102687.50;31727915;27;20083;-79
2024/01/29 20:11:43;;;;;;;26.77;9.87;;;;;;;4.58;100.00;102684.03;31793127;27;20055;-80
2024/01/29 20:26:48;;;;;;;23.60;9.97;;;;;;;4.90;100.00;102680.91;31780247;27;20051;-79
2024/01/29 20:41:51;;;;;;;17.73;7.60;;;;;;;4.96;100.00;102695.78;31757271;27;20113;-81
2024/01/29 20:56:56;;;;;;;36.67;15.87;;;;;;;4.77;100.00;102692.59;31751148;27;20083;-78
2024/01/29 21:11:59;;;;;;;18.77;6.68;;;;;;;4.65;100.00;102690.53;31757372;27;20048;-79
2024/01/29 21:27:01;;;;;;;14.67;6.73;;;;;;;4.57;100.00;102693.22;31698728;28;20097;-78
2024/01/29 21:42:03;;;;;;;14.27;7.60;;;;;;;4.44;100.00;102705.72;31710202;27;20090;-78
2024/01/29 21:57:05;;;;;;;16.13;6.50;;;;;;;4.70;100.00;102700.38;31741343;27;20135;-79
2024/01/29 22:12:07;;;;;;;13.63;6.73;;;;;;;4.58;100.00;102700.97;31736772;27;20497;-77
2024/01/29 22:27:09;;;;;;;11.73;5.83;;;;;;;4.73;100.00;102708.59;31757438;27;20370;-77
2024/01/29 22:42:12;;;;;;;9.73;4.60;;;;;;;5.83;100.00;102699.13;31742539;27;20103;-77
2024/01/29 22:57:14;;;;;;;12.03;6.23;;;;;;;5.90;100.00;102695.97;31780061;27;20056;-78
2024/01/29 23:12:16;;;;;;;9.70;4.50;;;;;;;6.05;100.00;102681.94;31754916;27;20051;-77
2024/01/29 23:27:20;;;;;;;12.43;4.80;;;;;;;6.30;100.00;102694.50;31714608;27;20495;-77
2024/01/29 23:42:22;;;;;;;10.33;5.33;;;;;;;5.21;100.00;102696.88;31732212;27;20047;-76
2024/01/29 23:57:25;;;;;;;15.37;7.00;;;;;;;5.40;100.00;102685.78;31722410;27;20075;-77
